Time;durP1;ratioP1;P1;durP2;ratioP2;P2;SDS_P1;SDS_P2;PMS_P1;PMS_P2;Temp;Humidity;BMP_temperature;BMP_pressure;BME280_temperature;BME280_humidity;BME280_pressure;Samples;Min_cycle;Max_cycle;Signal;HPM_P1;HPM_P2
2023/01/21 00:02:14;;;;;;;31.60;17.88;;;2.40;99.90;;;;;;4971608;28;20496;-80
2023/01/21 00:04:39;;;;;;;29.40;17.02;;;2.30;99.90;;;;;;4956507;28;20197;-80
2023/01/21 00:07:06;;;;;;;29.70;17.13;;;2.30;99.90;;;;;;4971418;28;20205;-80
2023/01/21 00:09:32;;;;;;;37.53;18.00;;;2.40;99.90;;;;;;4971323;28;20606;-79
2023/01/21 00:11:57;;;;;;;34.40;18.17;;;2.20;99.90;;;;;;4971261;28;20166;-80
2023/01/21 00:14:23;;;;;;;31.45;17.58;;;2.20;99.90;;;;;;4971043;28;20685;-80
2023/01/21 00:16:49;;;;;;;29.05;16.80;;;2.10;99.90;;;;;;4956234;28;20198;-80
2023/01/21 00:19:14;;;;;;;29.75;17.00;;;2.10;99.90;;;;;;4954997;28;20198;-81
2023/01/21 00:21:40;;;;;;;32.67;18.50;;;2.20;99.90;;;;;;4961961;29;20217;-80
2023/01/21 00:24:06;;;;;;;34.85;18.88;;;2.10;99.90;;;;;;4985936;28;20163;-80
2023/01/21 00:26:31;;;;;;;33.67;17.50;;;1.90;99.90;;;;;;4995411;28;20198;-80
2023/01/21 00:28:57;;;;;;;31.48;17.60;;;2.10;99.90;;;;;;4972597;28;20253;-81
2023/01/21 00:31:23;;;;;;;31.75;17.15;;;2.10;99.90;;;;;;4970920;28;20185;-79
2023/01/21 00:33:49;;;;;;;28.63;17.63;;;2.20;99.90;;;;;;4971431;28;20207;-79
2023/01/21 00:36:17;;;;;;;39.88;18.45;;;2.00;99.90;;;;;;4971047;28;20335;-79
2023/01/21 00:38:47;;;;;;;38.25;19.02;;;2.10;99.90;;;;;;4956076;28;20619;-80
2023/01/21 00:41:13;;;;;;;39.97;18.73;;;2.10;99.90;;;;;;4956068;28;20218;-81
2023/01/21 00:43:42;;;;;;;42.50;19.15;;;2.00;99.90;;;;;;4970768;28;20279;-80
2023/01/21 00:46:08;;;;;;;37.83;18.90;;;1.80;99.90;;;;;;4970826;28;20277;-81
2023/01/21 00:48:34;;;;;;;35.38;18.58;;;1.80;99.90;;;;;;4970597;28;20706;-79
2023/01/21 00:51:00;;;;;;;38.90;19.63;;;1.90;99.90;;;;;;4970518;28;20305;-79
2023/01/21 00:53:32;;;;;;;37.35;19.85;;;1.90;99.90;;;;;;4955882;28;20631;-80
2023/01/21 00:56:00;;;;;;;34.35;17.92;;;1.90;99.90;;;;;;4970703;28;20266;-80
2023/01/21 00:58:25;;;;;;;51.53;19.40;;;1.80;99.90;;;;;;4953653;28;20208;-80
2023/01/21 01:01:08;;;;;;;44.42;20.52;;;1.90;99.90;;;;;;4955618;28;20949;-80
2023/01/21 01:03:35;;;;;;;39.13;20.40;;;1.80;99.90;;;;;;4955386;28;20177;-79
2023/01/21 01:06:06;;;;;;;40.15;19.75;;;1.90;99.90;;;;;;4955227;28;20236;-79
2023/01/21 01:08:32;;;;;;;45.63;21.90;;;1.70;99.90;;;;;;4970131;28;20170;-79
2023/01/21 01:10:58;;;;;;;42.38;21.67;;;1.60;99.90;;;;;;4954082;28;20565;-80
2023/01/21 01:13:24;;;;;;;38.90;20.83;;;1.50;99.90;;;;;;4969753;28;20179;-80
2023/01/21 01:15:54;;;;;;;40.08;20.33;;;1.40;99.90;;;;;;4969735;28;20174;-80
2023/01/21 01:18:24;;;;;;;43.15;21.40;;;1.40;99.90;;;;;;4970011;28;20185;-80
2023/01/21 01:20:49;;;;;;;38.35;19.63;;;1.50;99.90;;;;;;4954915;28;20218;-80
2023/01/21 01:23:24;;;;;;;40.35;19.23;;;1.40;99.90;;;;;;4957248;28;20654;-80
2023/01/21 01:26:02;;;;;;;44.72;20.15;;;1.30;99.90;;;;;;4956884;28;20273;-80
2023/01/21 01:28:28;;;;;;;41.97;19.30;;;1.30;99.90;;;;;;4970809;28;20174;-80
2023/01/21 01:30:55;;;;;;;41.40;20.50;;;1.30;99.90;;;;;;4986274;28;20191;-79
2023/01/21 01:33:24;;;;;;;43.47;21.55;;;1.40;99.90;;;;;;4971833;28;20568;-79
2023/01/21 01:36:16;;;;;;;39.75;20.27;;;1.40;99.90;;;;;;4969605;28;20185;-79
2023/01/21 01:38:43;;;;;;;41.15;21.63;;;1.50;99.90;;;;;;4972428;28;20195;-79
2023/01/21 01:41:16;;;;;;;43.65;21.25;;;1.50;99.90;;;;;;4957035;29;20211;-79
2023/01/21 01:44:08;;;;;;;45.67;21.15;;;1.70;99.90;;;;;;4967949;28;20174;-79
2023/01/21 01:46:37;;;;;;;39.70;20.95;;;1.60;99.90;;;;;;4966890;28;20190;-79
2023/01/21 01:49:14;;;;;;;43.58;21.40;;;1.50;99.90;;;;;;4959916;28;20252;-79
2023/01/21 01:51:50;;;;;;;44.85;21.17;;;1.60;99.90;;;;;;4978929;28;20186;-79
2023/01/21 01:54:21;;;;;;;38.13;19.87;;;1.60;99.90;;;;;;4974460;28;20177;-80
2023/01/21 01:56:50;;;;;;;44.90;22.20;;;1.60;99.90;;;;;;4958848;28;20225;-80
2023/01/21 01:59:17;;;;;;;43.78;21.42;;;1.70;99.90;;;;;;4958623;28;20178;-80
2023/01/21 02:04:13;;;;;;;43.25;21.45;;;1.60;99.90;;;;;;4957373;28;20170;-80
2023/01/21 02:06:39;;;;;;;50.03;23.17;;;1.70;99.90;;;;;;4972871;28;20638;-80
2023/01/21 02:09:05;;;;;;;49.72;22.52;;;1.70;99.90;;;;;;4957188;28;20197;-79
2023/01/21 02:11:31;;;;;;;44.67;21.25;;;1.60;99.90;;;;;;4955695;28;20530;-80
2023/01/21 02:13:58;;;;;;;55.17;23.08;;;1.40;99.90;;;;;;4955042;28;20175;-80
2023/01/21 02:17:06;;;;;;;56.22;24.20;;;1.20;99.90;;;;;;4959196;28;20186;-80
2023/01/21 02:19:46;;;;;;;40.90;21.13;;;1.20;99.90;;;;;;4960715;28;20194;-80
2023/01/21 02:22:26;;;;;;;43.97;22.77;;;1.20;99.90;;;;;;4966071;28;20194;-80
2023/01/21 02:25:19;;;;;;;51.42;22.92;;;1.10;99.90;;;;;;4978590;28;20174;-79
2023/01/21 02:28:05;;;;;;;50.75;21.85;;;1.10;99.90;;;;;;4960905;28;20165;-80
2023/01/21 02:30:40;;;;;;;47.88;21.98;;;1.20;99.90;;;;;;4978940;28;20199;-79
2023/01/21 02:33:35;;;;;;;46.90;23.33;;;1.40;99.90;;;;;;4979346;28;20173;-80
2023/01/21 02:36:20;;;;;;;54.23;23.43;;;1.20;99.90;;;;;;4961666;28;20171;-80
2023/01/21 02:39:08;;;;;;;53.90;23.77;;;1.10;99.90;;;;;;4976509;28;20276;-80
2023/01/21 02:41:53;;;;;;;58.75;23.98;;;1.30;99.90;;;;;;4969236;28;20225;-80
2023/01/21 02:44:39;;;;;;;52.47;24.27;;;1.50;99.90;;;;;;4968439;28;20174;-79
2023/01/21 02:47:49;;;;;;;52.03;23.20;;;1.60;99.90;;;;;;4975289;28;20601;-79
2023/01/21 02:50:26;;;;;;;51.57;25.27;;;1.50;99.90;;;;;;4951828;28;20252;-80
2023/01/21 02:52:59;;;;;;;55.80;24.40;;;1.40;99.90;;;;;;4967069;28;20190;-79
2023/01/21 02:55:31;;;;;;;52.63;23.27;;;1.20;99.90;;;;;;4952380;28;20178;-79
2023/01/21 02:58:06;;;;;;;54.80;24.63;;;1.20;99.90;;;;;;4968924;28;20257;-80
2023/01/21 03:01:03;;;;;;;48.30;23.55;;;1.20;99.90;;;;;;4968664;28;20575;-80
2023/01/21 03:03:32;;;;;;;56.10;24.17;;;1.20;99.90;;;;;;4959272;28;20638;-81
2023/01/21 03:06:25;;;;;;;58.43;26.87;;;1.30;99.90;;;;;;4954168;28;20197;-79
2023/01/21 03:08:55;;;;;;;63.07;26.23;;;1.50;99.90;;;;;;4966838;28;20175;-80
2023/01/21 03:11:22;;;;;;;48.77;23.93;;;1.50;99.90;;;;;;4968634;28;20513;-80
2023/01/21 03:16:58;;;;;;;55.38;22.55;;;1.30;99.90;;;;;;4953840;29;20211;-80
2023/01/21 03:19:52;;;;;;;54.75;24.58;;;1.40;99.90;;;;;;4970286;28;20195;-79
2023/01/21 03:22:23;;;;;;;58.33;23.13;;;1.50;99.90;;;;;;4957733;28;20262;-80
2023/01/21 03:24:51;;;;;;;59.37;25.10;;;1.40;99.90;;;;;;4972157;28;20229;-80
2023/01/21 03:27:22;;;;;;;64.37;26.07;;;1.40;99.90;;;;;;4957348;28;20178;-80
2023/01/21 03:29:50;;;;;;;61.10;26.57;;;1.40;99.90;;;;;;4955759;28;20199;-79
2023/01/21 03:32:17;;;;;;;64.83;26.13;;;1.10;99.90;;;;;;4972149;28;20179;-80
2023/01/21 03:34:48;;;;;;;60.40;25.77;;;1.10;99.90;;;;;;4971785;28;20269;-80
2023/01/21 03:37:20;;;;;;;58.43;25.87;;;1.00;99.90;;;;;;4956863;28;20635;-80
2023/01/21 03:39:57;;;;;;;58.73;25.53;;;1.10;99.90;;;;;;4956834;28;20197;-80
2023/01/21 03:42:23;;;;;;;58.97;25.90;;;1.20;99.90;;;;;;4956918;28;20178;-80
2023/01/21 03:44:49;;;;;;;57.00;23.80;;;1.10;99.90;;;;;;4971802;28;20184;-79
2023/01/21 03:47:21;;;;;;;58.53;25.37;;;1.10;99.90;;;;;;4972000;28;20178;-80
2023/01/21 03:49:56;;;;;;;55.40;24.40;;;1.00;99.90;;;;;;4956827;28;20655;-79
2023/01/21 03:52:24;;;;;;;55.23;24.27;;;1.10;99.90;;;;;;4971686;28;20170;-80
2023/01/21 03:54:50;;;;;;;59.37;22.53;;;1.00;99.90;;;;;;4957528;28;20189;-80
2023/01/21 03:57:17;;;;;;;56.70;23.80;;;1.00;99.90;;;;;;4973595;28;20726;-80
2023/01/21 03:59:43;;;;;;;57.73;25.17;;;1.10;99.90;;;;;;4956913;28;21375;-80
2023/01/21 04:02:09;;;;;;;70.57;26.20;;;0.90;99.90;;;;;;4971533;28;20690;-79
2023/01/21 04:04:35;;;;;;;63.40;24.45;;;0.90;99.90;;;;;;4956631;28;20221;-80
2023/01/21 04:07:01;;;;;;;46.50;23.90;;;1.00;99.90;;;;;;4956653;28;20621;-81
2023/01/21 04:09:26;;;;;;;60.23;23.87;;;1.10;99.90;;;;;;4971000;28;20194;-81
2023/01/21 04:11:52;;;;;;;55.63;25.13;;;1.00;99.90;;;;;;4971419;28;20178;-81
2023/01/21 04:14:17;;;;;;;62.03;27.40;;;0.90;99.90;;;;;;4959094;28;20171;-81
2023/01/21 04:16:43;;;;;;;57.10;25.50;;;1.00;99.90;;;;;;4961513;28;20187;-81
2023/01/21 04:19:09;;;;;;;68.37;27.13;;;1.10;99.90;;;;;;4956780;28;20191;-80
2023/01/21 04:21:34;;;;;;;75.67;27.77;;;1.00;99.90;;;;;;4971437;28;20206;-81
2023/01/21 04:24:00;;;;;;;56.67;25.47;;;1.00;99.90;;;;;;4956425;28;20638;-81
2023/01/21 04:26:26;;;;;;;64.53;24.83;;;1.00;99.90;;;;;;4956408;28;20187;-81
2023/01/21 04:28:51;;;;;;;68.07;25.70;;;0.80;99.90;;;;;;4956371;28;20171;-81
2023/01/21 04:31:17;;;;;;;66.80;25.07;;;0.80;99.90;;;;;;4955063;28;20182;-81
2023/01/21 04:33:43;;;;;;;62.67;24.87;;;0.70;99.90;;;;;;4970215;28;20175;-81
2023/01/21 04:36:08;;;;;;;59.10;24.87;;;0.80;99.90;;;;;;4970957;28;20540;-81
2023/01/21 04:38:34;;;;;;;60.03;25.57;;;0.80;99.90;;;;;;4970904;28;20198;-81
2023/01/21 04:40:59;;;;;;;60.00;25.33;;;0.90;99.90;;;;;;4956104;28;20666;-81
2023/01/21 04:43:25;;;;;;;60.43;24.33;;;1.00;99.90;;;;;;4956349;28;20210;-81
2023/01/21 04:45:51;;;;;;;52.70;23.10;;;1.10;99.90;;;;;;4971023;28;20179;-80
2023/01/21 04:48:17;;;;;;;53.73;24.87;;;1.10;99.90;;;;;;4955563;28;20529;-80
2023/01/21 04:50:43;;;;;;;57.23;25.37;;;1.00;99.90;;;;;;4970363;28;20647;-81
2023/01/21 04:53:08;;;;;;;48.73;21.53;;;0.90;99.90;;;;;;4970357;28;20258;-81
2023/01/21 04:55:34;;;;;;;71.30;26.17;;;1.00;99.90;;;;;;4970296;28;20277;-81
2023/01/21 04:57:59;;;;;;;60.87;24.33;;;1.10;99.90;;;;;;4954999;28;20178;-80
2023/01/21 05:00:25;;;;;;;57.90;25.97;;;1.20;99.90;;;;;;4955975;28;20222;-79
2023/01/21 05:02:51;;;;;;;58.57;24.90;;;1.10;99.90;;;;;;4955506;28;20174;-80
2023/01/21 05:05:18;;;;;;;53.27;23.63;;;1.00;99.90;;;;;;4969942;28;20958;-80
2023/01/21 05:07:44;;;;;;;64.33;28.00;;;1.00;99.90;;;;;;4969920;28;20226;-81
2023/01/21 05:10:15;;;;;;;59.97;25.50;;;1.00;99.90;;;;;;4955164;28;20182;-81
2023/01/21 05:12:41;;;;;;;63.17;27.53;;;0.90;99.90;;;;;;4970017;28;20178;-81
2023/01/21 05:15:07;;;;;;;63.03;25.53;;;0.90;99.90;;;;;;4969773;28;20261;-81
2023/01/21 05:17:32;;;;;;;64.27;24.77;;;0.90;99.90;;;;;;4955221;28;20656;-79
2023/01/21 05:19:58;;;;;;;61.80;25.90;;;0.80;99.90;;;;;;4970033;28;20183;-80
2023/01/21 05:22:23;;;;;;;67.43;27.47;;;0.80;99.90;;;;;;4954652;28;20191;-79
2023/01/21 05:24:49;;;;;;;63.10;25.97;;;0.90;99.90;;;;;;4954798;28;20173;-79
2023/01/21 05:27:15;;;;;;;59.60;26.67;;;0.70;99.90;;;;;;4955170;28;20171;-79
2023/01/21 05:29:40;;;;;;;55.73;24.10;;;0.70;99.90;;;;;;4955083;28;20584;-79
2023/01/21 05:32:06;;;;;;;57.87;26.13;;;0.80;99.90;;;;;;4969677;28;20531;-79
2023/01/21 05:34:32;;;;;;;49.97;25.83;;;0.80;99.90;;;;;;4954775;28;20257;-80
2023/01/21 05:36:57;;;;;;;70.80;26.63;;;0.90;99.90;;;;;;4969510;28;20198;-79
2023/01/21 05:39:23;;;;;;;68.68;26.90;;;1.10;99.90;;;;;;4969823;28;20287;-79
2023/01/21 05:41:49;;;;;;;67.33;27.10;;;1.20;99.90;;;;;;4969467;28;20209;-79
2023/01/21 05:44:14;;;;;;;62.50;26.50;;;1.00;99.90;;;;;;4953102;28;20653;-80
2023/01/21 05:46:40;;;;;;;63.43;27.93;;;1.10;99.90;;;;;;4969690;28;20237;-79
2023/01/21 05:49:05;;;;;;;61.47;25.20;;;1.10;99.90;;;;;;4954612;28;20205;-79
2023/01/21 05:51:31;;;;;;;59.50;26.67;;;1.30;99.90;;;;;;4969387;28;20217;-79
2023/01/21 05:53:57;;;;;;;60.57;26.23;;;1.30;99.90;;;;;;4969268;28;20635;-79
2023/01/21 05:56:22;;;;;;;64.50;24.87;;;1.10;99.90;;;;;;4954864;28;20182;-79
2023/01/21 05:58:48;;;;;;;66.63;26.00;;;1.10;99.90;;;;;;4954562;28;20167;-81
2023/01/21 06:01:13;;;;;;;68.07;27.70;;;0.80;99.90;;;;;;4954447;28;20245;-80
2023/01/21 06:03:39;;;;;;;63.10;26.40;;;0.90;99.90;;;;;;4969166;28;20171;-80
2023/01/21 06:06:06;;;;;;;72.23;28.60;;;0.90;99.90;;;;;;4954336;28;20247;-80
2023/01/21 06:08:31;;;;;;;66.50;27.57;;;0.70;99.90;;;;;;4954331;28;20177;-80
2023/01/21 06:10:57;;;;;;;76.07;31.23;;;0.80;99.90;;;;;;4954275;28;20190;-79
2023/01/21 06:13:23;;;;;;;64.30;29.43;;;0.90;99.90;;;;;;4954200;28;20186;-81
2023/01/21 06:15:49;;;;;;;73.17;29.83;;;0.70;99.90;;;;;;4954293;28;20178;-80
2023/01/21 06:18:14;;;;;;;74.40;29.37;;;0.70;99.90;;;;;;4969170;28;20636;-80
2023/01/21 06:20:40;;;;;;;69.20;28.73;;;0.50;99.90;;;;;;4968496;28;20210;-80
2023/01/21 06:23:06;;;;;;;71.90;27.30;;;0.40;99.90;;;;;;4954019;28;20173;-80
2023/01/21 06:25:32;;;;;;;76.30;30.13;;;0.40;99.90;;;;;;4954223;28;20250;-80
2023/01/21 06:27:58;;;;;;;70.63;29.00;;;0.50;99.90;;;;;;4969056;28;20167;-80
2023/01/21 06:30:24;;;;;;;71.80;29.30;;;0.50;99.90;;;;;;4954020;28;20205;-80
2023/01/21 06:32:50;;;;;;;65.80;28.30;;;0.40;99.90;;;;;;4969130;28;20534;-79
2023/01/21 06:35:16;;;;;;;68.00;29.43;;;0.60;99.90;;;;;;4954189;28;20175;-80
2023/01/21 06:37:43;;;;;;;68.47;27.17;;;0.70;99.90;;;;;;4953925;28;20194;-80
2023/01/21 06:40:10;;;;;;;64.40;27.60;;;0.50;99.90;;;;;;4953463;28;20201;-80
2023/01/21 06:42:35;;;;;;;65.37;28.50;;;0.70;99.90;;;;;;4953956;28;20635;-80
2023/01/21 06:45:01;;;;;;;65.40;27.33;;;0.70;99.90;;;;;;4968533;28;20182;-80
2023/01/21 06:47:26;;;;;;;67.23;26.77;;;0.60;99.90;;;;;;4953720;28;20167;-80
2023/01/21 06:49:52;;;;;;;61.70;26.57;;;0.50;99.90;;;;;;4953280;28;20217;-80
2023/01/21 06:52:18;;;;;;;61.93;25.73;;;0.40;99.90;;;;;;4968603;28;20704;-80
2023/01/21 06:54:43;;;;;;;64.13;28.27;;;0.40;99.90;;;;;;4968855;28;20269;-80
2023/01/21 06:57:10;;;;;;;68.07;27.40;;;0.50;99.90;;;;;;4955680;28;20178;-80
2023/01/21 06:59:36;;;;;;;61.70;29.17;;;0.60;99.90;;;;;;4972407;28;20658;-80
2023/01/21 07:02:02;;;;;;;67.90;27.33;;;0.60;99.90;;;;;;4972330;28;20213;-80
2023/01/21 07:04:28;;;;;;;64.53;28.23;;;0.40;99.90;;;;;;4971677;28;20186;-80
2023/01/21 07:06:53;;;;;;;73.80;27.47;;;0.30;99.90;;;;;;4971137;28;20179;-80
2023/01/21 07:09:19;;;;;;;62.17;27.30;;;0.40;99.90;;;;;;4956386;28;20195;-80
2023/01/21 07:11:45;;;;;;;66.17;26.97;;;0.40;99.90;;;;;;4956297;28;20178;-80
2023/01/21 07:14:11;;;;;;;66.20;26.93;;;0.30;99.90;;;;;;4971123;28;20230;-81
2023/01/21 07:16:36;;;;;;;59.65;24.98;;;0.40;99.90;;;;;;4956346;28;20167;-80
2023/01/21 07:19:02;;;;;;;67.67;26.33;;;0.60;99.90;;;;;;4956155;28;20190;-83
2023/01/21 07:21:28;;;;;;;68.67;27.00;;;0.50;99.90;;;;;;4970909;28;20579;-80
2023/01/21 07:23:54;;;;;;;72.63;27.57;;;0.40;99.90;;;;;;4956098;28;20690;-79
2023/01/21 07:26:20;;;;;;;69.37;27.17;;;0.40;99.90;;;;;;4970860;28;20174;-80
2023/01/21 07:28:46;;;;;;;76.53;28.30;;;0.20;99.90;;;;;;4970813;28;20176;-80
2023/01/21 07:31:12;;;;;;;60.37;25.73;;;0.30;99.90;;;;;;4970554;28;20238;-80
2023/01/21 07:33:38;;;;;;;68.20;27.50;;;0.40;99.90;;;;;;4970882;28;20523;-80
2023/01/21 07:36:04;;;;;;;67.20;27.33;;;0.40;99.90;;;;;;4955747;28;20217;-82
2023/01/21 07:38:30;;;;;;;60.80;26.37;;;0.50;99.90;;;;;;4955938;28;20263;-81
2023/01/21 07:40:56;;;;;;;70.40;28.10;;;0.30;99.90;;;;;;4970831;28;20235;-80
2023/01/21 07:43:22;;;;;;;73.87;27.10;;;0.40;99.90;;;;;;4954580;28;20170;-80
2023/01/21 07:45:47;;;;;;;72.47;26.80;;;0.60;99.90;;;;;;4955881;28;20257;-79
2023/01/21 07:48:13;;;;;;;73.37;27.53;;;0.60;99.90;;;;;;4955597;28;20167;-80
2023/01/21 07:50:39;;;;;;;63.13;24.57;;;0.80;99.90;;;;;;4955440;28;20199;-81
2023/01/21 07:53:04;;;;;;;63.33;26.43;;;0.90;99.90;;;;;;4971529;28;20619;-79
2023/01/21 07:55:30;;;;;;;64.17;26.80;;;0.90;99.90;;;;;;4955646;28;20230;-81
2023/01/21 07:57:56;;;;;;;71.77;28.80;;;0.90;99.90;;;;;;4970015;28;20516;-81
2023/01/21 08:00:23;;;;;;;69.17;27.97;;;0.80;99.90;;;;;;4969970;28;20317;-80
2023/01/21 08:02:55;;;;;;;67.57;27.80;;;0.90;99.90;;;;;;4970161;28;20174;-80
2023/01/21 08:05:25;;;;;;;69.00;27.60;;;1.00;99.90;;;;;;4932915;28;1094231;-82
2023/01/21 08:07:51;;;;;;;72.23;27.80;;;1.10;99.90;;;;;;4971174;28;20702;-81
2023/01/21 08:10:18;;;;;;;64.07;27.77;;;0.90;99.90;;;;;;4957825;28;20202;-81
2023/01/21 08:12:44;;;;;;;63.85;29.08;;;1.00;99.90;;;;;;4956689;28;20175;-78
2023/01/21 08:15:10;;;;;;;64.80;28.17;;;1.00;99.90;;;;;;4971067;28;20236;-80
2023/01/21 08:17:43;;;;;;;69.07;28.40;;;1.20;99.90;;;;;;4956094;28;20782;-80
2023/01/21 08:20:10;;;;;;;57.53;25.03;;;1.20;99.90;;;;;;4971070;28;20264;-79
2023/01/21 08:22:37;;;;;;;71.00;27.83;;;1.20;99.90;;;;;;4970976;28;20654;-80
2023/01/21 08:25:04;;;;;;;80.70;28.83;;;0.90;99.90;;;;;;4970997;28;20583;-81
2023/01/21 08:27:30;;;;;;;61.03;26.13;;;0.90;99.90;;;;;;4971711;28;20166;-81
2023/01/21 08:29:55;;;;;;;71.87;27.73;;;0.90;99.90;;;;;;4955870;28;20201;-79
2023/01/21 08:32:21;;;;;;;65.37;26.73;;;0.90;99.90;;;;;;4956677;28;20181;-80
2023/01/21 08:34:47;;;;;;;65.93;25.33;;;1.00;99.90;;;;;;4956190;28;20648;-81
2023/01/21 08:37:12;;;;;;;63.70;25.63;;;1.20;99.90;;;;;;4956285;28;20528;-79
2023/01/21 08:39:38;;;;;;;67.87;28.20;;;1.30;99.90;;;;;;4956129;28;20281;-80
2023/01/21 08:42:04;;;;;;;57.17;24.70;;;1.30;99.90;;;;;;4970654;28;20297;-81
2023/01/21 08:44:29;;;;;;;60.07;26.03;;;1.30;99.90;;;;;;4970668;28;20639;-81
2023/01/21 08:46:55;;;;;;;65.30;26.67;;;1.10;99.90;;;;;;4955982;28;20162;-79
2023/01/21 08:49:21;;;;;;;68.90;26.27;;;1.10;99.90;;;;;;4970273;28;20190;-79
2023/01/21 08:51:48;;;;;;;71.43;28.80;;;0.90;99.90;;;;;;4970178;28;20584;-80
2023/01/21 08:54:13;;;;;;;71.50;28.27;;;0.90;99.90;;;;;;4970671;28;20174;-81
2023/01/21 08:56:39;;;;;;;57.27;25.60;;;1.00;99.90;;;;;;4942121;29;20181;-79
2023/01/21 08:59:05;;;;;;;61.07;24.53;;;0.70;99.90;;;;;;4971028;28;20199;-81
2023/01/21 09:01:31;;;;;;;64.97;28.27;;;0.70;99.90;;;;;;4955570;28;20210;-81
2023/01/21 09:03:58;;;;;;;59.13;24.53;;;0.80;99.90;;;;;;4955268;28;20678;-78
2023/01/21 09:06:26;;;;;;;59.97;28.07;;;0.90;99.90;;;;;;4955654;28;20170;-79
2023/01/21 09:08:52;;;;;;;67.33;26.60;;;0.80;99.90;;;;;;4955289;28;20170;-79
2023/01/21 09:11:18;;;;;;;65.73;31.13;;;0.90;99.90;;;;;;4970136;28;20181;-80
2023/01/21 09:13:44;;;;;;;67.00;28.17;;;0.90;99.90;;;;;;4954395;28;20167;-79
2023/01/21 09:16:15;;;;;;;55.70;24.93;;;0.90;99.90;;;;;;4955352;28;20198;-81
2023/01/21 09:18:41;;;;;;;62.03;25.67;;;1.00;99.90;;;;;;4954659;28;20175;-82
2023/01/21 09:21:08;;;;;;;65.73;25.30;;;1.20;99.90;;;;;;4954968;28;20210;-85
2023/01/21 09:23:35;;;;;;;71.57;28.03;;;1.00;99.90;;;;;;4970230;28;20174;-79
2023/01/21 09:26:07;;;;;;;67.33;26.60;;;1.00;99.90;;;;;;4969913;28;20273;-80
2023/01/21 09:28:35;;;;;;;66.37;26.53;;;1.10;99.90;;;;;;4954975;28;20254;-84
2023/01/21 09:31:10;;;;;;;62.63;26.20;;;1.20;99.90;;;;;;4953674;28;20500;-80
2023/01/21 09:33:38;;;;;;;63.13;26.97;;;1.40;99.90;;;;;;4954839;28;20170;-79
2023/01/21 09:36:06;;;;;;;65.27;27.03;;;1.50;99.90;;;;;;4969654;28;20669;-81
2023/01/21 09:38:32;;;;;;;62.83;26.53;;;1.60;99.90;;;;;;4954615;28;20254;-87
2023/01/21 09:41:23;;;;;;;57.47;25.20;;;1.60;99.90;;;;;;4953734;28;20305;-79
2023/01/21 09:43:56;;;;;;;61.90;24.45;;;1.40;99.90;;;;;;4954821;29;20206;-80
2023/01/21 09:46:37;;;;;;;58.50;24.40;;;1.20;99.90;;;;;;4954969;28;20268;-82
2023/01/21 09:49:05;;;;;;;57.10;26.92;;;1.10;99.90;;;;;;4954453;28;20190;-81
2023/01/21 09:51:49;;;;;;;49.17;23.87;;;1.20;99.90;;;;;;4969653;28;20166;-80
2023/01/21 09:54:26;;;;;;;55.22;24.92;;;1.30;99.90;;;;;;4969400;28;20685;-79
2023/01/21 09:57:20;;;;;;;61.97;25.63;;;1.30;99.90;;;;;;4968797;28;20190;-84
2023/01/21 10:00:14;;;;;;;60.80;24.47;;;1.50;99.90;;;;;;4954379;28;20190;-79
2023/01/21 10:02:57;;;;;;;57.63;25.97;;;1.50;99.90;;;;;;4954329;28;20600;-79
2023/01/21 10:05:23;;;;;;;57.03;24.70;;;1.50;99.90;;;;;;4954039;28;20202;-79
2023/01/21 10:08:13;;;;;;;66.03;25.63;;;1.50;99.90;;;;;;4952770;28;20537;-80
2023/01/21 10:11:02;;;;;;;55.72;22.08;;;1.50;99.90;;;;;;4954177;28;20190;-79
2023/01/21 10:13:46;;;;;;;53.13;24.83;;;1.70;99.90;;;;;;4954041;28;20175;-79
2023/01/21 10:16:21;;;;;;;64.37;24.80;;;1.60;99.90;;;;;;4954577;28;20188;-80
2023/01/21 10:18:50;;;;;;;54.80;24.15;;;1.70;99.90;;;;;;4953820;28;20691;-79
2023/01/21 10:21:22;;;;;;;62.10;25.37;;;1.70;99.90;;;;;;4953814;28;20221;-80
2023/01/21 10:23:56;;;;;;;56.17;24.50;;;1.70;99.90;;;;;;4954274;28;20175;-79
2023/01/21 10:26:23;;;;;;;51.30;23.77;;;1.70;99.90;;;;;;4968462;28;20166;-81
2023/01/21 10:28:52;;;;;;;61.87;25.93;;;1.70;99.90;;;;;;4969040;28;20205;-81
2023/01/21 10:31:27;;;;;;;60.50;25.17;;;1.80;99.90;;;;;;4967991;28;20179;-80
2023/01/21 10:33:54;;;;;;;54.42;23.90;;;1.80;99.90;;;;;;4954313;28;20566;-80
2023/01/21 10:36:38;;;;;;;56.60;25.02;;;1.80;99.90;;;;;;4953939;28;20635;-80
2023/01/21 10:39:44;;;;;;;53.67;25.13;;;1.80;99.90;;;;;;4952805;28;20200;-82
2023/01/21 10:42:47;;;;;;;54.23;23.90;;;1.70;99.90;;;;;;4968552;28;20320;-81
2023/01/21 10:45:36;;;;;;;59.07;24.13;;;1.70;99.90;;;;;;4952316;28;20281;-81
2023/01/21 10:48:12;;;;;;;54.90;24.17;;;1.80;99.90;;;;;;4954017;28;20177;-80
2023/01/21 10:51:15;;;;;;;48.10;23.70;;;1.90;99.90;;;;;;4953962;28;20194;-81
2023/01/21 10:54:17;;;;;;;49.08;22.58;;;2.10;99.90;;;;;;4952379;28;20650;-78
2023/01/21 10:57:25;;;;;;;44.77;21.93;;;2.20;99.90;;;;;;4953890;28;20245;-78
2023/01/21 10:59:52;;;;;;;47.60;20.60;;;2.10;99.90;;;;;;4934254;28;20293;-78
2023/01/21 11:02:30;;;;;;;49.30;23.00;;;2.10;99.90;;;;;;4953743;29;20564;-78
2023/01/21 11:05:00;;;;;;;48.60;23.48;;;2.10;99.90;;;;;;4953144;28;20650;-79
2023/01/21 11:07:36;;;;;;;48.78;19.83;;;2.30;99.90;;;;;;4968241;28;20895;-79
2023/01/21 11:10:04;;;;;;;46.75;22.80;;;2.30;99.90;;;;;;4952179;28;20194;-84
2023/01/21 11:12:31;;;;;;;55.08;23.17;;;2.30;99.90;;;;;;4968865;28;20943;-80
2023/01/21 11:15:06;;;;;;;53.67;23.30;;;2.40;99.90;;;;;;4968606;28;20709;-81
2023/01/21 11:17:35;;;;;;;42.35;22.38;;;2.50;99.90;;;;;;4953580;28;20174;-81
2023/01/21 11:20:04;;;;;;;48.53;22.83;;;2.50;99.90;;;;;;4968347;28;20190;-81
2023/01/21 11:22:31;;;;;;;53.88;23.25;;;2.50;99.90;;;;;;4968109;28;20631;-79
2023/01/21 11:24:58;;;;;;;48.35;24.10;;;2.60;99.90;;;;;;4953486;28;20166;-80
2023/01/21 11:27:38;;;;;;;51.45;22.42;;;2.70;99.90;;;;;;4953532;28;20206;-77
2023/01/21 11:30:19;;;;;;;54.40;23.67;;;2.70;99.90;;;;;;4950571;28;20272;-78
2023/01/21 11:32:44;;;;;;;45.35;21.40;;;2.80;99.90;;;;;;4951931;28;20588;-79
2023/01/21 11:35:20;;;;;;;50.00;21.55;;;2.90;99.90;;;;;;4953259;28;20262;-79
2023/01/21 11:37:46;;;;;;;44.72;21.20;;;2.90;99.90;;;;;;4953968;28;20575;-79
2023/01/21 11:40:23;;;;;;;53.33;24.08;;;2.80;99.90;;;;;;4953982;28;20194;-79
2023/01/21 11:42:51;;;;;;;51.38;21.63;;;2.90;99.90;;;;;;4956210;28;20174;-79
2023/01/21 11:45:28;;;;;;;52.85;22.40;;;3.00;99.90;;;;;;4957249;28;20256;-78
2023/01/21 11:47:55;;;;;;;48.63;23.10;;;3.10;99.90;;;;;;4957019;28;20171;-79
2023/01/21 11:50:34;;;;;;;42.70;21.50;;;3.10;99.90;;;;;;4956972;28;20542;-78
2023/01/21 11:53:13;;;;;;;45.95;21.65;;;3.00;99.90;;;;;;4957063;28;20208;-81
2023/01/21 11:55:43;;;;;;;39.70;20.63;;;3.10;99.90;;;;;;4956596;28;20182;-79
2023/01/21 11:58:38;;;;;;;40.92;19.23;;;2.90;99.90;;;;;;4956610;28;20166;-79
2023/01/21 12:01:21;;;;;;;37.60;20.27;;;3.00;99.90;;;;;;4956785;28;20216;-79
2023/01/21 12:03:58;;;;;;;47.10;22.63;;;3.00;99.90;;;;;;4956383;28;20174;-79
2023/01/21 12:06:29;;;;;;;43.72;21.92;;;3.00;99.90;;;;;;4955246;28;20186;-77
2023/01/21 12:08:59;;;;;;;44.88;20.95;;;2.90;99.90;;;;;;4956867;28;20202;-78
2023/01/21 12:11:31;;;;;;;47.38;20.50;;;2.80;99.90;;;;;;4956658;28;20600;-78
2023/01/21 12:13:59;;;;;;;43.03;20.45;;;2.60;99.90;;;;;;4971521;28;20742;-79
2023/01/21 12:16:38;;;;;;;37.13;20.65;;;2.70;99.90;;;;;;4956424;28;20179;-78
2023/01/21 12:19:29;;;;;;;48.80;21.85;;;2.80;99.90;;;;;;4970867;28;20190;-80
2023/01/21 12:22:01;;;;;;;40.17;21.60;;;2.60;99.90;;;;;;4954948;28;20221;-77
2023/01/21 12:24:38;;;;;;;51.45;21.17;;;2.70;99.90;;;;;;4956131;28;20639;-79
2023/01/21 12:27:50;;;;;;;48.70;20.75;;;2.80;99.90;;;;;;4956807;28;20178;-80
2023/01/21 12:30:46;;;;;;;48.80;24.13;;;3.00;99.90;;;;;;4955255;28;20240;-79
2023/01/21 12:33:18;;;;;;;47.80;23.42;;;3.20;99.90;;;;;;4956600;28;20167;-79
2023/01/21 12:35:53;;;;;;;49.70;24.77;;;3.20;99.90;;;;;;4956056;28;20249;-79
2023/01/21 12:38:24;;;;;;;58.33;26.02;;;3.10;99.90;;;;;;4956283;28;20256;-80
2023/01/21 12:40:54;;;;;;;54.40;24.90;;;3.00;99.90;;;;;;4971096;28;20758;-79
2023/01/21 12:43:36;;;;;;;55.53;26.45;;;2.90;99.90;;;;;;4970987;28;20600;-79
2023/01/21 12:46:10;;;;;;;63.10;27.60;;;3.00;99.90;;;;;;4956237;28;20261;-79
2023/01/21 12:48:47;;;;;;;45.63;24.13;;;2.80;99.90;;;;;;4955928;28;20210;-79
2023/01/21 12:51:23;;;;;;;63.53;27.25;;;3.00;99.90;;;;;;4955825;28;20182;-78
2023/01/21 12:54:08;;;;;;;61.13;26.23;;;3.00;99.90;;;;;;4955044;28;20249;-79
2023/01/21 12:56:46;;;;;;;56.35;26.00;;;3.00;99.90;;;;;;4955732;28;20201;-79
2023/01/21 12:59:37;;;;;;;69.65;26.63;;;2.40;99.90;;;;;;4970585;28;20601;-79
2023/01/21 13:02:13;;;;;;;66.47;28.10;;;2.20;99.90;;;;;;4955950;28;20212;-79